createdAt,value
2023-04-18T00:00:42.375Z,10.55
2023-04-18T00:03:08.967Z,10.07
2023-04-18T00:05:35.560Z,11.35
2023-04-18T00:08:02.369Z,10.60
2023-04-18T00:10:28.629Z,10.77
2023-04-18T00:12:55.010Z,10.98
2023-04-18T00:15:21.346Z,9.73
2023-04-18T00:17:47.689Z,14.35
2023-04-18T00:20:14.205Z,11.93
2023-04-18T00:22:41.644Z,11.50
2023-04-18T00:25:09.062Z,13.45
2023-04-18T00:27:35.819Z,11.38
2023-04-18T00:30:02.188Z,10.65
2023-04-18T00:32:28.566Z,10.82
2023-04-18T00:34:54.980Z,11.70
2023-04-18T00:37:21.248Z,11.02
2023-04-18T00:39:47.543Z,11.57
2023-04-18T00:42:13.834Z,12.55
2023-04-18T00:44:40.107Z,11.50
2023-04-18T00:47:06.407Z,10.90
2023-04-18T00:49:32.984Z,13.60
2023-04-18T00:51:59.462Z,11.60
2023-04-18T00:54:26.912Z,10.00
2023-04-18T00:56:53.703Z,12.27
2023-04-18T00:59:20.843Z,12.32
2023-04-18T01:01:47.217Z,12.63
2023-04-18T01:04:13.958Z,12.13
2023-04-18T01:06:41.048Z,10.82
2023-04-18T01:09:07.410Z,9.57
2023-04-18T01:11:33.700Z,9.88
2023-04-18T01:14:04.828Z,12.25
2023-04-18T01:16:31.933Z,12.43
2023-04-18T01:18:59.514Z,13.38
2023-04-18T01:23:59.583Z,11.88
2023-04-18T01:28:52.192Z,12.55
2023-04-18T01:31:18.617Z,10.48
2023-04-18T01:33:44.950Z,11.35
2023-04-18T01:36:11.273Z,13.88
2023-04-18T01:38:37.737Z,12.20
2023-04-18T01:41:04.048Z,11.02
2023-04-18T01:43:30.368Z,12.48
2023-04-18T01:45:56.619Z,11.68
2023-04-18T01:48:22.895Z,11.35
2023-04-18T01:50:49.261Z,11.05
2023-04-18T01:53:15.655Z,11.70
2023-04-18T01:55:41.930Z,11.38
2023-04-18T01:58:08.428Z,11.50
2023-04-18T02:00:34.783Z,12.55
2023-04-18T02:03:01.212Z,12.23
2023-04-18T02:05:27.710Z,10.98
2023-04-18T02:07:54.104Z,12.88
2023-04-18T02:10:20.702Z,10.45
2023-04-18T02:12:47.078Z,11.52
2023-04-18T02:15:13.485Z,13.38
2023-04-18T02:17:39.786Z,12.07
2023-04-18T02:20:06.578Z,11.20
2023-04-18T02:22:32.908Z,12.30
2023-04-18T02:24:59.207Z,11.15
2023-04-18T02:27:25.480Z,11.52
2023-04-18T02:29:51.877Z,13.68
2023-04-18T02:32:18.171Z,10.93
2023-04-18T02:34:44.457Z,11.32
2023-04-18T02:37:10.844Z,10.55
2023-04-18T02:39:37.129Z,10.75
2023-04-18T02:42:03.478Z,10.82
2023-04-18T02:44:29.776Z,10.98
2023-04-18T02:46:56.053Z,10.77
2023-04-18T02:49:22.380Z,10.65
2023-04-18T02:51:48.632Z,11.55
2023-04-18T02:54:15.248Z,11.52
2023-04-18T02:56:41.713Z,12.27
2023-04-18T02:59:08.436Z,12.45
2023-04-18T03:01:34.821Z,12.52
2023-04-18T03:04:01.133Z,12.80
2023-04-18T03:06:27.432Z,11.32
2023-04-18T03:08:55.013Z,12.30
2023-04-18T03:13:47.549Z,14.57
2023-04-18T03:16:13.919Z,12.25
2023-04-18T03:18:40.208Z,13.18
2023-04-18T03:21:06.598Z,13.73
2023-04-18T03:23:32.995Z,12.68
2023-04-18T03:25:59.585Z,13.43
2023-04-18T03:28:25.857Z,13.05
2023-04-18T03:30:52.149Z,13.10
2023-04-18T03:33:18.531Z,11.38
2023-04-18T03:35:44.924Z,12.77
2023-04-18T03:38:11.235Z,15.23
2023-04-18T03:40:37.549Z,11.30
2023-04-18T03:43:03.965Z,11.38
2023-04-18T03:45:30.254Z,13.82
2023-04-18T03:47:56.752Z,10.88
2023-04-18T03:50:23.082Z,12.90
2023-04-18T03:52:49.426Z,13.02
2023-04-18T03:55:15.970Z,12.68
2023-04-18T03:57:42.246Z,12.93
2023-04-18T04:00:09.231Z,15.32
2023-04-18T04:02:35.814Z,12.90
2023-04-18T04:05:02.314Z,15.05
2023-04-18T04:07:28.709Z,12.18
2023-04-18T04:09:54.976Z,14.82
2023-04-18T04:12:21.285Z,14.80
2023-04-18T04:14:47.587Z,15.10
2023-04-18T04:17:14.072Z,13.32
2023-04-18T04:19:40.323Z,15.07
2023-04-18T04:22:06.638Z,14.48
2023-04-18T04:24:33.006Z,14.93
2023-04-18T04:27:00.391Z,13.77
2023-04-18T04:29:27.794Z,14.13
2023-04-18T04:31:54.292Z,15.20
2023-04-18T04:34:20.580Z,13.65
2023-04-18T04:36:47.307Z,14.50
2023-04-18T04:39:14.633Z,14.95
2023-04-18T04:41:40.910Z,13.30
2023-04-18T04:44:07.202Z,12.98
2023-04-18T04:46:33.540Z,14.57
2023-04-18T04:49:00.466Z,16.13
2023-04-18T04:51:26.815Z,17.13
2023-04-18T04:53:53.319Z,15.68
2023-04-18T04:56:19.682Z,16.02
2023-04-18T04:58:46.035Z,16.00
2023-04-18T05:01:12.452Z,16.35
2023-04-18T05:03:39.055Z,17.73
2023-04-18T05:06:05.825Z,14.32
2023-04-18T05:08:32.103Z,14.90
2023-04-18T05:10:58.487Z,15.25
2023-04-18T05:13:24.782Z,14.82
2023-04-18T05:15:51.064Z,15.23
2023-04-18T05:18:17.415Z,12.85
2023-04-18T05:20:43.868Z,16.25
2023-04-18T05:23:10.187Z,17.42
2023-04-18T05:25:36.721Z,16.17
2023-04-18T05:28:03.098Z,16.10
2023-04-18T05:30:29.426Z,16.35
2023-04-18T05:32:55.815Z,17.48
2023-04-18T05:35:22.285Z,17.10
2023-04-18T05:37:48.615Z,16.50
2023-04-18T05:40:15.011Z,14.82
2023-04-18T05:42:41.314Z,16.33
2023-04-18T05:45:08.246Z,14.25
2023-04-18T05:47:34.550Z,18.15
2023-04-18T05:50:00.901Z,18.33
2023-04-18T05:52:27.197Z,14.40
2023-04-18T05:54:53.496Z,16.40
2023-04-18T05:57:19.823Z,16.20
2023-04-18T05:59:46.236Z,15.57
2023-04-18T06:02:12.644Z,17.52
2023-04-18T06:04:42.756Z,17.10
2023-04-18T06:07:09.419Z,15.93
2023-04-18T06:09:35.932Z,19.52
2023-04-18T06:12:02.270Z,16.17
2023-04-18T06:14:28.723Z,17.38
2023-04-18T06:16:55.109Z,16.58
2023-04-18T06:19:21.487Z,18.65
2023-04-18T06:21:48.794Z,18.90
2023-04-18T06:24:15.404Z,17.00
2023-04-18T06:26:42.178Z,15.60
2023-04-18T06:29:08.452Z,17.08
2023-04-18T06:31:34.796Z,16.80
2023-04-18T06:34:01.095Z,17.38
2023-04-18T06:36:27.457Z,16.40
2023-04-18T06:38:53.731Z,19.02
2023-04-18T06:41:20.048Z,15.57
2023-04-18T06:43:59.755Z,15.77
2023-04-18T06:46:29.920Z,17.17
2023-04-18T06:48:56.348Z,19.33
2023-04-18T06:51:22.652Z,18.63
2023-04-18T06:53:48.931Z,17.65
2023-04-18T06:56:15.260Z,18.98
2023-04-18T06:58:41.542Z,15.77
2023-04-18T07:01:07.854Z,15.23
2023-04-18T07:03:34.221Z,13.65
2023-04-18T07:06:00.749Z,15.13
2023-04-18T07:08:27.063Z,16.75
2023-04-18T07:10:53.337Z,15.98
2023-04-18T07:13:19.776Z,15.68
2023-04-18T07:15:46.107Z,15.57
2023-04-18T07:18:14.532Z,16.30
2023-04-18T07:20:44.463Z,15.38
2023-04-18T07:23:10.756Z,15.57
2023-04-18T07:25:37.743Z,11.95
2023-04-18T07:28:04.243Z,11.95
2023-04-18T07:30:30.537Z,14.80
2023-04-18T07:32:56.937Z,12.82
2023-04-18T07:35:23.279Z,15.20
2023-04-18T07:37:49.672Z,12.70
2023-04-18T07:40:15.943Z,16.95
2023-04-18T07:42:42.307Z,11.70
2023-04-18T07:45:08.868Z,12.38
2023-04-18T07:47:35.189Z,13.70
2023-04-18T07:50:02.023Z,14.68
2023-04-18T07:52:28.321Z,12.60
2023-04-18T07:54:54.597Z,12.82
2023-04-18T07:57:20.948Z,11.52
2023-04-18T07:59:47.237Z,10.95
2023-04-18T08:02:13.592Z,13.63
2023-04-18T08:04:40.128Z,12.95
2023-04-18T08:07:06.592Z,13.60
2023-04-18T08:09:33.001Z,12.15
2023-04-18T08:11:59.548Z,12.25
2023-04-18T08:14:25.901Z,13.00
2023-04-18T08:16:52.289Z,13.73
2023-04-18T08:19:18.685Z,13.48
2023-04-18T08:21:44.956Z,13.15
2023-04-18T08:24:11.318Z,10.48
2023-04-18T08:26:37.633Z,10.88
2023-04-18T08:29:03.933Z,12.88
2023-04-18T08:31:30.265Z,11.27
2023-04-18T08:33:56.590Z,11.18
2023-04-18T08:36:22.907Z,12.50
2023-04-18T08:38:49.266Z,11.25
2023-04-18T08:41:21.422Z,9.88
2023-04-18T08:43:48.478Z,11.25
2023-04-18T08:46:14.911Z,12.40
2023-04-18T08:48:41.322Z,11.52
2023-04-18T08:51:07.678Z,12.48
2023-04-18T08:53:34.062Z,12.23
2023-04-18T08:56:00.536Z,10.10
2023-04-18T08:58:26.935Z,11.55
2023-04-18T09:00:54.448Z,9.95
2023-04-18T09:03:38.572Z,10.25
2023-04-18T09:06:10.205Z,11.07
2023-04-18T09:08:36.552Z,16.73
2023-04-18T09:11:21.213Z,9.90
2023-04-18T09:13:47.498Z,12.27
2023-04-18T09:16:13.874Z,9.50
2023-04-18T09:18:40.274Z,10.43
2023-04-18T09:21:19.355Z,10.85
2023-04-18T09:23:45.665Z,10.10
2023-04-18T09:26:12.058Z,9.70
2023-04-18T09:28:38.468Z,11.05
2023-04-18T09:31:10.626Z,9.38
2023-04-18T09:33:38.121Z,9.65
2023-04-18T09:36:17.432Z,8.20
2023-04-18T09:38:44.370Z,8.50
2023-04-18T09:41:11.929Z,8.68
2023-04-18T09:43:38.812Z,8.52
2023-04-18T09:46:05.652Z,9.25
2023-04-18T09:48:31.982Z,8.32
2023-04-18T09:51:01.277Z,7.65
2023-04-18T09:53:28.590Z,9.52
2023-04-18T09:58:25.678Z,9.18
2023-04-18T10:00:54.081Z,7.07
2023-04-18T10:03:25.198Z,8.77
2023-04-18T10:05:52.255Z,7.90
2023-04-18T10:08:18.721Z,8.35
2023-04-18T10:10:45.029Z,8.60
2023-04-18T10:13:13.709Z,7.43
2023-04-18T10:15:42.319Z,7.43
2023-04-18T10:18:14.767Z,8.30
2023-04-18T10:20:41.850Z,7.38
2023-04-18T10:23:28.250Z,8.13
2023-04-18T10:25:54.583Z,8.07
2023-04-18T10:28:21.022Z,7.72
2023-04-18T10:30:47.287Z,7.63
2023-04-18T10:33:30.973Z,6.78
2023-04-18T10:36:08.968Z,6.63
2023-04-18T10:38:36.835Z,7.45
2023-04-18T10:41:19.966Z,8.07
2023-04-18T10:44:21.177Z,7.00
2023-04-18T10:46:50.452Z,7.28
2023-04-18T10:49:26.846Z,7.13
2023-04-18T10:51:59.034Z,5.72
2023-04-18T10:54:51.752Z,6.53
2023-04-18T10:57:18.099Z,7.03
2023-04-18T10:59:48.742Z,7.43
2023-04-18T11:02:26.497Z,6.53
2023-04-18T11:04:54.674Z,6.35
2023-04-18T11:07:38.797Z,7.13
2023-04-18T11:10:06.853Z,6.05
2023-04-18T11:12:36.262Z,5.93
2023-04-18T11:15:23.498Z,7.00
2023-04-18T11:18:01.771Z,6.15
2023-04-18T11:20:58.349Z,6.55
2023-04-18T11:23:24.629Z,6.40
2023-04-18T11:25:51.146Z,6.28
2023-04-18T11:28:21.758Z,6.47
2023-04-18T11:30:48.144Z,5.22
2023-04-18T11:33:14.694Z,6.53
2023-04-18T11:35:45.119Z,6.32
2023-04-18T11:38:13.448Z,7.55
2023-04-18T11:40:47.067Z,5.25
2023-04-18T11:43:20.959Z,6.05
2023-04-18T11:45:52.188Z,5.88
2023-04-18T11:48:18.609Z,5.90
2023-04-18T11:50:44.882Z,5.05
2023-04-18T11:53:11.282Z,6.40
2023-04-18T11:55:37.604Z,5.63
2023-04-18T11:58:03.959Z,5.82
2023-04-18T12:00:34.234Z,6.57
2023-04-18T12:03:02.935Z,6.10
2023-04-18T12:05:31.784Z,6.65
2023-04-18T12:08:10.832Z,5.63
2023-04-18T12:10:38.260Z,6.65
2023-04-18T12:13:08.397Z,5.85
2023-04-18T12:15:39.076Z,10.88
2023-04-18T12:18:05.814Z,7.63
2023-04-18T12:20:39.250Z,6.40
2023-04-18T12:25:32.757Z,6.65
2023-04-18T12:28:02.221Z,6.18
2023-04-18T12:30:31.074Z,6.82
2023-04-18T12:32:59.817Z,6.85
2023-04-18T12:35:26.574Z,6.55
2023-04-18T12:37:54.533Z,6.82
2023-04-18T12:40:22.486Z,4.78
2023-04-18T12:42:50.110Z,6.82
2023-04-18T12:45:17.422Z,6.30
2023-04-18T12:50:16.155Z,9.45
2023-04-18T12:52:42.546Z,10.20
2023-04-18T12:55:09.582Z,8.15
2023-04-18T12:57:36.294Z,8.63
2023-04-18T13:00:03.849Z,8.10
2023-04-18T13:02:30.338Z,6.80
2023-04-18T13:04:56.928Z,7.55
2023-04-18T13:07:23.338Z,7.78
2023-04-18T13:09:49.756Z,8.10
2023-04-18T13:12:16.060Z,7.82
2023-04-18T13:14:42.686Z,9.35
2023-04-18T13:17:09.304Z,8.70
2023-04-18T13:19:35.578Z,8.82
2023-04-18T13:22:02.107Z,7.30
2023-04-18T13:24:28.601Z,10.38
2023-04-18T13:26:55.130Z,10.00
2023-04-18T13:29:21.557Z,6.38
2023-04-18T13:31:47.886Z,6.00
2023-04-18T13:34:14.207Z,6.78
2023-04-18T13:36:40.511Z,7.13
2023-04-18T13:39:07.639Z,6.35
2023-04-18T13:41:33.937Z,7.47
2023-04-18T13:44:00.212Z,7.03
2023-04-18T13:46:26.609Z,7.28
2023-04-18T13:48:53.203Z,6.30
2023-04-18T13:51:19.528Z,6.78
2023-04-18T13:53:45.847Z,7.18
2023-04-18T13:56:12.250Z,7.40
2023-04-18T13:58:38.526Z,6.22
2023-04-18T14:01:05.158Z,5.97
2023-04-18T14:03:31.615Z,7.18
2023-04-18T14:05:58.199Z,7.57
2023-04-18T14:08:24.784Z,6.55
2023-04-18T14:10:51.052Z,5.68
2023-04-18T14:13:17.378Z,5.97
2023-04-18T14:15:43.704Z,6.90
2023-04-18T14:18:10.059Z,7.15
2023-04-18T14:20:36.409Z,5.82
2023-04-18T14:23:02.713Z,5.90
2023-04-18T14:25:29.638Z,6.82
2023-04-18T14:28:06.889Z,7.22
2023-04-18T14:30:33.140Z,6.75
2023-04-18T14:32:59.421Z,7.28
2023-04-18T14:35:26.012Z,6.18
2023-04-18T14:37:52.376Z,8.07
2023-04-18T14:40:19.060Z,8.52
2023-04-18T14:42:45.357Z,9.52
2023-04-18T14:45:11.759Z,7.38
2023-04-18T14:47:38.069Z,8.75
2023-04-18T14:50:06.529Z,8.27
2023-04-18T14:52:32.831Z,10.40
2023-04-18T14:54:59.135Z,10.07
2023-04-18T14:57:26.233Z,9.02
2023-04-18T14:59:52.597Z,8.30
2023-04-18T15:02:18.965Z,8.73
2023-04-18T15:04:45.559Z,8.75
2023-04-18T15:07:11.990Z,10.30
2023-04-18T15:09:38.340Z,8.52
2023-04-18T15:12:05.931Z,9.13
2023-04-18T15:14:33.052Z,10.65
2023-04-18T15:16:59.614Z,8.20
2023-04-18T15:19:27.777Z,8.35
2023-04-18T15:21:54.101Z,8.45
2023-04-18T15:24:20.401Z,9.38
2023-04-18T15:26:46.688Z,8.82
2023-04-18T15:29:12.988Z,9.75
2023-04-18T15:31:39.438Z,8.38
2023-04-18T15:34:06.991Z,10.43
2023-04-18T15:36:33.820Z,8.90
2023-04-18T15:39:00.206Z,9.05
2023-04-18T15:41:26.610Z,8.98
2023-04-18T15:43:52.907Z,9.52
2023-04-18T15:46:19.202Z,8.52
2023-04-18T15:48:45.517Z,7.05
2023-04-18T15:51:11.886Z,8.68
2023-04-18T15:53:38.188Z,10.55
2023-04-18T15:56:04.613Z,9.20
2023-04-18T15:58:31.027Z,9.93
2023-04-18T16:00:57.521Z,10.65
2023-04-18T16:03:24.179Z,11.38
2023-04-18T16:05:51.312Z,10.70
2023-04-18T16:08:17.688Z,9.95
2023-04-18T16:10:44.041Z,10.63
2023-04-18T16:13:10.421Z,8.05
2023-04-18T16:15:36.745Z,8.35
2023-04-18T16:18:03.107Z,9.82
2023-04-18T16:20:29.439Z,9.75
2023-04-18T16:22:55.712Z,10.70
2023-04-18T16:25:22.095Z,10.90
2023-04-18T16:27:48.406Z,9.10
2023-04-18T16:30:14.803Z,10.60
2023-04-18T16:32:41.115Z,11.35
2023-04-18T16:35:08.620Z,9.70
2023-04-18T16:40:01.241Z,13.20
2023-04-18T16:42:27.709Z,11.10
2023-04-18T16:44:54.014Z,10.70
2023-04-18T16:47:20.315Z,12.18
2023-04-18T16:49:46.727Z,10.70
2023-04-18T16:52:13.789Z,11.00
2023-04-18T16:54:40.731Z,11.13
2023-04-18T16:57:07.166Z,10.13
2023-04-18T16:59:33.467Z,11.98
2023-04-18T17:01:59.892Z,10.40
2023-04-18T17:04:26.362Z,11.30
2023-04-18T17:06:53.380Z,12.13
2023-04-18T17:09:19.808Z,11.02
2023-04-18T17:11:46.185Z,12.75
2023-04-18T17:14:13.073Z,10.90
2023-04-18T17:16:41.288Z,12.57
2023-04-18T17:19:08.646Z,12.90
2023-04-18T17:21:35.698Z,9.82
2023-04-18T17:24:02.872Z,11.23
2023-04-18T17:26:33.544Z,10.20
2023-04-18T17:29:00.450Z,11.13
2023-04-18T17:31:27.124Z,12.15
2023-04-18T17:33:53.547Z,9.23
2023-04-18T17:36:20.195Z,10.90
2023-04-18T17:38:46.494Z,10.93
2023-04-18T17:41:12.761Z,12.63
2023-04-18T17:43:39.260Z,11.90
2023-04-18T17:46:05.645Z,11.73
2023-04-18T17:48:31.952Z,13.68
2023-04-18T17:50:58.311Z,12.65
2023-04-18T17:53:24.705Z,11.57
2023-04-18T17:55:51.104Z,13.60
2023-04-18T17:58:20.935Z,10.95
2023-04-18T18:00:47.971Z,11.52
2023-04-18T18:03:15.134Z,11.00
2023-04-18T18:05:42.177Z,12.38
2023-04-18T18:08:08.512Z,12.82
2023-04-18T18:10:34.978Z,13.27
2023-04-18T18:13:01.398Z,12.65
2023-04-18T18:15:27.788Z,12.85
2023-04-18T18:17:54.101Z,13.68
2023-04-18T18:20:20.410Z,11.43
2023-04-18T18:22:47.138Z,12.10
2023-04-18T18:25:13.670Z,12.35
2023-04-18T18:27:39.982Z,13.30
2023-04-18T18:30:07.250Z,12.10
2023-04-18T18:32:33.676Z,14.13
2023-04-18T18:35:00.009Z,13.13
2023-04-18T18:37:26.306Z,12.95
2023-04-18T18:39:55.864Z,11.80
2023-04-18T18:42:22.477Z,14.93
2023-04-18T18:44:48.763Z,11.57
2023-04-18T18:47:17.321Z,13.65
2023-04-18T18:49:43.806Z,11.02
2023-04-18T18:52:10.091Z,11.60
2023-04-18T18:54:36.465Z,10.98
2023-04-18T18:57:02.762Z,10.68
2023-04-18T18:59:29.667Z,10.80
2023-04-18T19:01:56.095Z,12.40
2023-04-18T19:04:22.607Z,9.85
2023-04-18T19:06:49.017Z,9.10
2023-04-18T19:09:15.510Z,12.05
2023-04-18T19:11:41.926Z,12.05
2023-04-18T19:14:08.260Z,10.52
2023-04-18T19:16:34.858Z,11.10
2023-04-18T19:19:01.435Z,12.82
2023-04-18T19:21:27.786Z,13.25
2023-04-18T19:23:54.092Z,12.27
2023-04-18T19:26:20.369Z,11.88
2023-04-18T19:28:46.683Z,11.70
2023-04-18T19:31:13.015Z,9.88
2023-04-18T19:33:39.391Z,10.07
2023-04-18T19:36:05.753Z,11.13
2023-04-18T19:38:32.065Z,12.63
2023-04-18T19:40:58.444Z,11.50
2023-04-18T19:43:24.793Z,9.30
2023-04-18T19:45:52.070Z,12.40
2023-04-18T19:48:19.579Z,11.25
2023-04-18T19:50:45.918Z,11.27
2023-04-18T19:53:12.234Z,9.95
2023-04-18T19:55:38.564Z,10.52
2023-04-18T19:58:04.924Z,11.90
2023-04-18T20:00:31.202Z,11.98
2023-04-18T20:02:57.582Z,11.10
2023-04-18T20:05:24.266Z,12.00
2023-04-18T20:07:50.606Z,10.32
2023-04-18T20:10:20.078Z,13.50
2023-04-18T20:12:48.193Z,13.88
2023-04-18T20:15:15.855Z,11.25
2023-04-18T20:17:42.193Z,12.38
2023-04-18T20:20:08.721Z,10.77
2023-04-18T20:22:35.034Z,11.35
2023-04-18T20:25:01.351Z,10.65
2023-04-18T20:27:27.630Z,12.80
2023-04-18T20:29:56.081Z,10.85
2023-04-18T20:32:23.485Z,12.13
2023-04-18T20:34:49.773Z,11.23
2023-04-18T20:37:16.129Z,12.57
2023-04-18T20:39:42.416Z,12.75
2023-04-18T20:42:08.727Z,10.88
2023-04-18T20:44:35.170Z,10.40
2023-04-18T20:47:01.523Z,13.32
2023-04-18T20:49:27.813Z,11.73
2023-04-18T20:51:54.108Z,14.10
2023-04-18T20:54:20.413Z,12.10
2023-04-18T20:56:46.710Z,12.48
2023-04-18T20:59:13.115Z,11.80
2023-04-18T21:01:39.461Z,11.43
2023-04-18T21:04:05.984Z,13.00
2023-04-18T21:06:32.423Z,10.93
2023-04-18T21:08:58.708Z,14.57
2023-04-18T21:11:25.002Z,11.60
2023-04-18T21:13:51.489Z,10.80
2023-04-18T21:16:17.814Z,10.45
2023-04-18T21:18:44.207Z,9.45
2023-04-18T21:21:10.605Z,11.27
2023-04-18T21:23:44.147Z,11.52
2023-04-18T21:28:56.388Z,14.80
2023-04-18T21:31:23.594Z,10.85
2023-04-18T21:33:54.091Z,9.88
2023-04-18T21:36:20.410Z,9.52
2023-04-18T21:38:46.902Z,11.00
2023-04-18T21:41:16.460Z,11.43
2023-04-18T21:43:43.480Z,9.43
2023-04-18T21:46:10.580Z,9.93
2023-04-18T21:48:41.189Z,11.15
2023-04-18T21:51:08.936Z,10.48
2023-04-18T21:53:35.434Z,10.05
2023-04-18T21:56:01.712Z,9.75
2023-04-18T21:58:28.177Z,9.82
2023-04-18T22:00:54.483Z,10.60
2023-04-18T22:03:21.062Z,10.80
2023-04-18T22:05:47.487Z,11.00
2023-04-18T22:08:14.268Z,10.20
2023-04-18T22:10:40.656Z,11.68
2023-04-18T22:13:07.056Z,13.20
2023-04-18T22:15:33.750Z,9.43
2023-04-18T22:18:00.106Z,11.57
2023-04-18T22:20:26.667Z,10.60
2023-04-18T22:22:55.950Z,10.45
2023-04-18T22:25:22.257Z,10.82
2023-04-18T22:27:48.589Z,10.45
2023-04-18T22:30:15.042Z,10.15
2023-04-18T22:32:41.370Z,12.32
2023-04-18T22:35:08.389Z,11.02
2023-04-18T22:37:34.667Z,11.50
2023-04-18T22:40:01.039Z,10.23
2023-04-18T22:42:28.030Z,9.00
2023-04-18T22:44:55.692Z,10.70
2023-04-18T22:47:22.028Z,11.52
2023-04-18T22:49:48.357Z,9.48
2023-04-18T22:52:15.006Z,11.52
2023-04-18T22:54:41.727Z,9.82
2023-04-18T22:57:08.127Z,9.23
2023-04-18T22:59:34.595Z,8.75
2023-04-18T23:02:01.255Z,8.60
2023-04-18T23:04:28.042Z,9.70
2023-04-18T23:06:54.392Z,8.90
2023-04-18T23:09:20.797Z,9.18
2023-04-18T23:11:47.260Z,8.43
2023-04-18T23:14:13.713Z,12.13
2023-04-18T23:16:41.979Z,10.75
2023-04-18T23:19:09.727Z,9.30
2023-04-18T23:21:36.076Z,9.55
2023-04-18T23:24:02.385Z,9.43
2023-04-18T23:26:28.689Z,8.95
2023-04-18T23:28:55.014Z,9.88
2023-04-18T23:31:21.462Z,9.88
2023-04-18T23:33:47.869Z,8.68
2023-04-18T23:36:14.205Z,10.55
2023-04-18T23:38:40.919Z,9.60
2023-04-18T23:41:07.280Z,11.32
2023-04-18T23:43:34.308Z,10.77
2023-04-18T23:46:00.909Z,9.75
2023-04-18T23:48:27.307Z,10.10
2023-04-18T23:50:54.130Z,9.45
2023-04-18T23:53:21.441Z,12.25
2023-04-18T23:55:50.595Z,11.10
2023-04-18T23:58:17.378Z,10.45
